sensor_id;sensor_type;location;lat;lon;timestamp;temperature;humidity
17066;DHT22;23120;52.336;21.182;2023-06-19T00:00:42;15.10;95.40
17066;DHT22;23120;52.336;21.182;2023-06-19T00:03:09;15.10;95.60
17066;DHT22;23120;52.336;21.182;2023-06-19T00:05:36;15.00;95.40
17066;DHT22;23120;52.336;21.182;2023-06-19T00:08:03;15.00;95.50
17066;DHT22;23120;52.336;21.182;2023-06-19T00:10:33;14.90;95.40
17066;DHT22;23120;52.336;21.182;2023-06-19T00:13:00;14.90;95.50
17066;DHT22;23120;52.336;21.182;2023-06-19T00:15:27;14.90;95.60
17066;DHT22;23120;52.336;21.182;2023-06-19T00:17:55;14.90;95.50
17066;DHT22;23120;52.336;21.182;2023-06-19T00:20:23;14.80;95.30
17066;DHT22;23120;52.336;21.182;2023-06-19T00:22:49;14.80;95.20
17066;DHT22;23120;52.336;21.182;2023-06-19T00:25:17;14.80;95.30
17066;DHT22;23120;52.336;21.182;2023-06-19T00:27:46;14.70;95.30
17066;DHT22;23120;52.336;21.182;2023-06-19T00:30:14;14.70;95.40
17066;DHT22;23120;52.336;21.182;2023-06-19T00:32:41;14.70;95.50
17066;DHT22;23120;52.336;21.182;2023-06-19T00:35:17;14.70;95.50
17066;DHT22;23120;52.336;21.182;2023-06-19T00:37:44;14.60;95.60
17066;DHT22;23120;52.336;21.182;2023-06-19T00:40:17;14.60;95.50
17066;DHT22;23120;52.336;21.182;2023-06-19T00:42:46;14.60;95.50
17066;DHT22;23120;52.336;21.182;2023-06-19T00:45:13;14.50;95.90
17066;DHT22;23120;52.336;21.182;2023-06-19T00:47:39;14.50;95.50
17066;DHT22;23120;52.336;21.182;2023-06-19T00:50:07;14.50;95.50
17066;DHT22;23120;52.336;21.182;2023-06-19T00:52:34;14.50;95.40
17066;DHT22;23120;52.336;21.182;2023-06-19T00:55:01;14.50;95.90
17066;DHT22;23120;52.336;21.182;2023-06-19T00:57:29;14.40;95.90
17066;DHT22;23120;52.336;21.182;2023-06-19T00:59:58;14.40;95.80
17066;DHT22;23120;52.336;21.182;2023-06-19T01:02:25;14.40;96.00
17066;DHT22;23120;52.336;21.182;2023-06-19T01:04:53;14.30;95.80
17066;DHT22;23120;52.336;21.182;2023-06-19T01:07:27;14.30;96.00
17066;DHT22;23120;52.336;21.182;2023-06-19T01:09:59;14.30;95.90
17066;DHT22;23120;52.336;21.182;2023-06-19T01:12:33;14.20;96.00
17066;DHT22;23120;52.336;21.182;2023-06-19T01:15:05;14.20;95.80
17066;DHT22;23120;52.336;21.182;2023-06-19T01:17:32;14.20;95.60
17066;DHT22;23120;52.336;21.182;2023-06-19T01:19:59;14.20;95.80
17066;DHT22;23120;52.336;21.182;2023-06-19T01:22:33;14.10;95.70
17066;DHT22;23120;52.336;21.182;2023-06-19T01:25:00;14.10;95.80
17066;DHT22;23120;52.336;21.182;2023-06-19T01:27:29;14.10;95.70
17066;DHT22;23120;52.336;21.182;2023-06-19T01:29:57;14.10;95.80
17066;DHT22;23120;52.336;21.182;2023-06-19T01:32:29;14.10;95.80
17066;DHT22;23120;52.336;21.182;2023-06-19T01:34:58;14.00;95.70
17066;DHT22;23120;52.336;21.182;2023-06-19T01:37:26;14.00;95.80
17066;DHT22;23120;52.336;21.182;2023-06-19T01:39:56;14.00;96.00
17066;DHT22;23120;52.336;21.182;2023-06-19T01:42:24;13.90;95.80
17066;DHT22;23120;52.336;21.182;2023-06-19T01:44:52;13.90;96.10
17066;DHT22;23120;52.336;21.182;2023-06-19T01:47:20;13.90;96.10
17066;DHT22;23120;52.336;21.182;2023-06-19T01:49:47;13.90;95.80
17066;DHT22;23120;52.336;21.182;2023-06-19T01:52:14;13.80;95.90
17066;DHT22;23120;52.336;21.182;2023-06-19T01:54:41;13.80;96.00
17066;DHT22;23120;52.336;21.182;2023-06-19T01:57:09;13.80;95.90
17066;DHT22;23120;52.336;21.182;2023-06-19T01:59:36;13.80;96.00
17066;DHT22;23120;52.336;21.182;2023-06-19T02:02:05;13.70;96.00
17066;DHT22;23120;52.336;21.182;2023-06-19T02:04:32;13.70;96.00
17066;DHT22;23120;52.336;21.182;2023-06-19T02:07:00;13.70;96.00
17066;DHT22;23120;52.336;21.182;2023-06-19T02:09:27;13.70;96.10
17066;DHT22;23120;52.336;21.182;2023-06-19T02:11:54;13.60;96.40
17066;DHT22;23120;52.336;21.182;2023-06-19T02:14:22;13.60;96.70
17066;DHT22;23120;52.336;21.182;2023-06-19T02:16:49;13.60;96.50
17066;DHT22;23120;52.336;21.182;2023-06-19T02:19:16;13.60;96.30
17066;DHT22;23120;52.336;21.182;2023-06-19T02:21:43;13.50;96.30
17066;DHT22;23120;52.336;21.182;2023-06-19T02:24:10;13.50;96.20
17066;DHT22;23120;52.336;21.182;2023-06-19T02:26:38;13.50;96.20
17066;DHT22;23120;52.336;21.182;2023-06-19T02:29:05;13.50;96.10
17066;DHT22;23120;52.336;21.182;2023-06-19T02:31:33;13.50;95.90
17066;DHT22;23120;52.336;21.182;2023-06-19T02:34:00;13.50;96.00
17066;DHT22;23120;52.336;21.182;2023-06-19T02:36:26;13.50;96.00
17066;DHT22;23120;52.336;21.182;2023-06-19T02:38:54;13.50;96.00
17066;DHT22;23120;52.336;21.182;2023-06-19T02:41:21;13.40;96.10
17066;DHT22;23120;52.336;21.182;2023-06-19T02:43:48;13.40;96.20
17066;DHT22;23120;52.336;21.182;2023-06-19T02:46:15;13.40;96.10
17066;DHT22;23120;52.336;21.182;2023-06-19T02:48:43;13.40;95.90
17066;DHT22;23120;52.336;21.182;2023-06-19T02:51:10;13.40;96.20
17066;DHT22;23120;52.336;21.182;2023-06-19T02:53:37;13.40;96.30
17066;DHT22;23120;52.336;21.182;2023-06-19T02:56:04;13.30;96.20
17066;DHT22;23120;52.336;21.182;2023-06-19T02:58:31;13.40;96.30
17066;DHT22;23120;52.336;21.182;2023-06-19T03:00:58;13.40;96.20
17066;DHT22;23120;52.336;21.182;2023-06-19T03:03:25;13.40;96.30
17066;DHT22;23120;52.336;21.182;2023-06-19T03:05:54;13.30;96.20
17066;DHT22;23120;52.336;21.182;2023-06-19T03:08:20;13.30;96.40
17066;DHT22;23120;52.336;21.182;2023-06-19T03:10:47;13.30;96.40
17066;DHT22;23120;52.336;21.182;2023-06-19T03:13:14;13.30;96.50
17066;DHT22;23120;52.336;21.182;2023-06-19T03:15:41;13.30;96.30
17066;DHT22;23120;52.336;21.182;2023-06-19T03:18:08;13.30;96.50
17066;DHT22;23120;52.336;21.182;2023-06-19T03:20:37;13.30;96.50
17066;DHT22;23120;52.336;21.182;2023-06-19T03:23:06;13.30;96.30
17066;DHT22;23120;52.336;21.182;2023-06-19T03:25:33;13.30;96.40
17066;DHT22;23120;52.336;21.182;2023-06-19T03:28:01;13.20;96.50
17066;DHT22;23120;52.336;21.182;2023-06-19T03:30:28;13.30;96.50
17066;DHT22;23120;52.336;21.182;2023-06-19T03:32:55;13.30;96.40
17066;DHT22;23120;52.336;21.182;2023-06-19T03:35:34;13.30;96.60
17066;DHT22;23120;52.336;21.182;2023-06-19T03:38:02;13.20;96.60
17066;DHT22;23120;52.336;21.182;2023-06-19T03:40:31;13.20;96.50
17066;DHT22;23120;52.336;21.182;2023-06-19T03:43:02;13.30;96.90
17066;DHT22;23120;52.336;21.182;2023-06-19T03:45:29;13.30;96.80
17066;DHT22;23120;52.336;21.182;2023-06-19T03:47:56;13.30;97.00
17066;DHT22;23120;52.336;21.182;2023-06-19T03:50:22;13.30;96.90
17066;DHT22;23120;52.336;21.182;2023-06-19T03:52:50;13.30;97.10
17066;DHT22;23120;52.336;21.182;2023-06-19T03:55:17;13.40;97.00
17066;DHT22;23120;52.336;21.182;2023-06-19T03:57:45;13.40;96.90
17066;DHT22;23120;52.336;21.182;2023-06-19T04:00:13;13.40;96.80
17066;DHT22;23120;52.336;21.182;2023-06-19T04:02:41;13.50;97.00
17066;DHT22;23120;52.336;21.182;2023-06-19T04:05:08;13.50;97.00
17066;DHT22;23120;52.336;21.182;2023-06-19T04:07:37;13.70;97.00
17066;DHT22;23120;52.336;21.182;2023-06-19T04:10:06;13.80;97.10
17066;DHT22;23120;52.336;21.182;2023-06-19T04:12:33;13.80;97.10
17066;DHT22;23120;52.336;21.182;2023-06-19T04:15:01;13.90;97.50
17066;DHT22;23120;52.336;21.182;2023-06-19T04:17:28;14.00;98.40
17066;DHT22;23120;52.336;21.182;2023-06-19T04:19:55;14.10;98.10
17066;DHT22;23120;52.336;21.182;2023-06-19T04:22:22;14.20;97.80
17066;DHT22;23120;52.336;21.182;2023-06-19T04:24:50;14.30;97.70
17066;DHT22;23120;52.336;21.182;2023-06-19T04:27:18;14.40;97.40
17066;DHT22;23120;52.336;21.182;2023-06-19T04:29:45;14.50;97.30
17066;DHT22;23120;52.336;21.182;2023-06-19T04:32:13;14.60;97.10
17066;DHT22;23120;52.336;21.182;2023-06-19T04:34:41;14.80;96.90
17066;DHT22;23120;52.336;21.182;2023-06-19T04:37:12;14.90;96.90
17066;DHT22;23120;52.336;21.182;2023-06-19T04:39:39;14.90;96.80
17066;DHT22;23120;52.336;21.182;2023-06-19T04:42:06;15.00;96.70
17066;DHT22;23120;52.336;21.182;2023-06-19T04:44:33;15.10;96.60
17066;DHT22;23120;52.336;21.182;2023-06-19T04:47:00;15.20;97.20
17066;DHT22;23120;52.336;21.182;2023-06-19T04:49:29;15.30;97.00
17066;DHT22;23120;52.336;21.182;2023-06-19T04:51:56;15.70;97.10
17066;DHT22;23120;52.336;21.182;2023-06-19T04:54:24;15.90;96.50
17066;DHT22;23120;52.336;21.182;2023-06-19T04:56:51;16.00;96.40
17066;DHT22;23120;52.336;21.182;2023-06-19T04:59:19;16.20;96.40
17066;DHT22;23120;52.336;21.182;2023-06-19T05:01:46;16.40;95.80
17066;DHT22;23120;52.336;21.182;2023-06-19T05:04:12;16.50;95.90
17066;DHT22;23120;52.336;21.182;2023-06-19T05:06:41;16.80;95.80
17066;DHT22;23120;52.336;21.182;2023-06-19T05:09:08;16.90;96.10
17066;DHT22;23120;52.336;21.182;2023-06-19T05:11:36;17.10;95.60
17066;DHT22;23120;52.336;21.182;2023-06-19T05:14:03;17.30;95.40
17066;DHT22;23120;52.336;21.182;2023-06-19T05:16:30;17.50;95.20
17066;DHT22;23120;52.336;21.182;2023-06-19T05:18:57;17.70;94.70
17066;DHT22;23120;52.336;21.182;2023-06-19T05:21:23;17.80;94.80
17066;DHT22;23120;52.336;21.182;2023-06-19T05:23:52;18.00;95.00
17066;DHT22;23120;52.336;21.182;2023-06-19T05:26:19;18.20;95.20
17066;DHT22;23120;52.336;21.182;2023-06-19T05:28:47;18.30;94.70
17066;DHT22;23120;52.336;21.182;2023-06-19T05:31:14;18.50;94.50
17066;DHT22;23120;52.336;21.182;2023-06-19T05:33:41;18.70;94.30
17066;DHT22;23120;52.336;21.182;2023-06-19T05:36:08;18.80;94.10
17066;DHT22;23120;52.336;21.182;2023-06-19T05:38:35;19.00;94.10
17066;DHT22;23120;52.336;21.182;2023-06-19T05:41:03;19.10;94.10
17066;DHT22;23120;52.336;21.182;2023-06-19T05:43:30;19.30;94.00
17066;DHT22;23120;52.336;21.182;2023-06-19T05:45:57;19.40;93.80
17066;DHT22;23120;52.336;21.182;2023-06-19T05:48:24;19.50;93.90
17066;DHT22;23120;52.336;21.182;2023-06-19T05:50:51;19.60;94.10
17066;DHT22;23120;52.336;21.182;2023-06-19T05:53:18;19.80;93.80
17066;DHT22;23120;52.336;21.182;2023-06-19T05:55:45;19.90;93.60
17066;DHT22;23120;52.336;21.182;2023-06-19T05:58:13;20.00;93.50
17066;DHT22;23120;52.336;21.182;2023-06-19T06:00:40;20.20;93.60
17066;DHT22;23120;52.336;21.182;2023-06-19T06:03:07;20.30;93.40
17066;DHT22;23120;52.336;21.182;2023-06-19T06:05:34;20.40;93.30
17066;DHT22;23120;52.336;21.182;2023-06-19T06:08:02;20.50;93.20
17066;DHT22;23120;52.336;21.182;2023-06-19T06:10:29;20.70;93.10
17066;DHT22;23120;52.336;21.182;2023-06-19T06:12:56;20.80;93.00
17066;DHT22;23120;52.336;21.182;2023-06-19T06:15:24;20.90;93.20
17066;DHT22;23120;52.336;21.182;2023-06-19T06:17:51;21.00;93.20
17066;DHT22;23120;52.336;21.182;2023-06-19T06:20:17;21.20;93.00
17066;DHT22;23120;52.336;21.182;2023-06-19T06:22:46;21.20;92.40
17066;DHT22;23120;52.336;21.182;2023-06-19T06:25:13;21.20;92.50
17066;DHT22;23120;52.336;21.182;2023-06-19T06:27:41;21.30;92.60
17066;DHT22;23120;52.336;21.182;2023-06-19T06:30:09;21.40;92.20
17066;DHT22;23120;52.336;21.182;2023-06-19T06:32:38;21.40;92.20
17066;DHT22;23120;52.336;21.182;2023-06-19T06:35:06;21.50;92.10
17066;DHT22;23120;52.336;21.182;2023-06-19T06:37:33;21.70;92.00
17066;DHT22;23120;52.336;21.182;2023-06-19T06:39:59;21.90;92.20
17066;DHT22;23120;52.336;21.182;2023-06-19T06:42:26;22.00;91.80
17066;DHT22;23120;52.336;21.182;2023-06-19T06:44:53;22.10;91.60
17066;DHT22;23120;52.336;21.182;2023-06-19T06:47:20;22.30;91.80
17066;DHT22;23120;52.336;21.182;2023-06-19T06:49:48;22.50;91.60
17066;DHT22;23120;52.336;21.182;2023-06-19T06:52:16;22.60;91.20
17066;DHT22;23120;52.336;21.182;2023-06-19T06:54:43;22.70;91.40
17066;DHT22;23120;52.336;21.182;2023-06-19T06:57:10;22.90;91.70
17066;DHT22;23120;52.336;21.182;2023-06-19T06:59:37;23.10;91.50
17066;DHT22;23120;52.336;21.182;2023-06-19T07:02:04;23.20;91.00
17066;DHT22;23120;52.336;21.182;2023-06-19T07:04:30;23.20;90.70
17066;DHT22;23120;52.336;21.182;2023-06-19T07:06:59;23.40;90.50
17066;DHT22;23120;52.336;21.182;2023-06-19T07:09:26;23.50;90.50
17066;DHT22;23120;52.336;21.182;2023-06-19T07:11:54;23.50;90.50
17066;DHT22;23120;52.336;21.182;2023-06-19T07:14:23;23.70;90.20
17066;DHT22;23120;52.336;21.182;2023-06-19T07:16:50;23.80;90.70
17066;DHT22;23120;52.336;21.182;2023-06-19T07:19:18;23.90;90.30
17066;DHT22;23120;52.336;21.182;2023-06-19T07:21:45;23.90;89.60
17066;DHT22;23120;52.336;21.182;2023-06-19T07:24:13;23.70;88.50
17066;DHT22;23120;52.336;21.182;2023-06-19T07:26:40;23.80;88.70
17066;DHT22;23120;52.336;21.182;2023-06-19T07:29:07;23.80;88.30
17066;DHT22;23120;52.336;21.182;2023-06-19T07:31:33;23.80;88.30
17066;DHT22;23120;52.336;21.182;2023-06-19T07:34:00;23.90;88.30
17066;DHT22;23120;52.336;21.182;2023-06-19T07:36:28;24.10;88.60
17066;DHT22;23120;52.336;21.182;2023-06-19T07:38:55;24.20;86.60
17066;DHT22;23120;52.336;21.182;2023-06-19T07:41:23;24.30;87.20
17066;DHT22;23120;52.336;21.182;2023-06-19T07:43:50;24.40;87.60
17066;DHT22;23120;52.336;21.182;2023-06-19T07:46:16;24.50;87.20
17066;DHT22;23120;52.336;21.182;2023-06-19T07:48:43;24.70;86.30
17066;DHT22;23120;52.336;21.182;2023-06-19T07:51:10;24.80;85.80
17066;DHT22;23120;52.336;21.182;2023-06-19T07:53:37;24.90;85.60
17066;DHT22;23120;52.336;21.182;2023-06-19T07:56:05;25.00;85.70
17066;DHT22;23120;52.336;21.182;2023-06-19T07:58:33;25.00;85.50
17066;DHT22;23120;52.336;21.182;2023-06-19T08:01:00;25.10;85.00
17066;DHT22;23120;52.336;21.182;2023-06-19T08:03:27;25.20;84.20
17066;DHT22;23120;52.336;21.182;2023-06-19T08:05:53;25.20;84.80
17066;DHT22;23120;52.336;21.182;2023-06-19T08:08:20;25.40;83.70
17066;DHT22;23120;52.336;21.182;2023-06-19T08:10:47;25.40;83.50
17066;DHT22;23120;52.336;21.182;2023-06-19T08:13:14;24.90;82.50
17066;DHT22;23120;52.336;21.182;2023-06-19T08:15:42;25.00;81.50
17066;DHT22;23120;52.336;21.182;2023-06-19T08:18:10;25.00;82.20
17066;DHT22;23120;52.336;21.182;2023-06-19T08:20:37;25.20;82.50
17066;DHT22;23120;52.336;21.182;2023-06-19T08:23:04;25.50;82.00
17066;DHT22;23120;52.336;21.182;2023-06-19T08:25:31;25.60;81.40
17066;DHT22;23120;52.336;21.182;2023-06-19T08:27:57;25.70;81.30
17066;DHT22;23120;52.336;21.182;2023-06-19T08:30:24;25.80;81.30
17066;DHT22;23120;52.336;21.182;2023-06-19T08:32:52;26.00;79.40
17066;DHT22;23120;52.336;21.182;2023-06-19T08:35:19;26.20;77.00
17066;DHT22;23120;52.336;21.182;2023-06-19T08:37:46;26.00;78.50
17066;DHT22;23120;52.336;21.182;2023-06-19T08:40:13;25.60;78.50
17066;DHT22;23120;52.336;21.182;2023-06-19T08:42:40;25.90;77.50
17066;DHT22;23120;52.336;21.182;2023-06-19T08:45:09;26.10;78.80
17066;DHT22;23120;52.336;21.182;2023-06-19T08:47:38;26.40;76.10
17066;DHT22;23120;52.336;21.182;2023-06-19T08:50:08;26.60;73.50
17066;DHT22;23120;52.336;21.182;2023-06-19T08:52:35;26.50;76.20
17066;DHT22;23120;52.336;21.182;2023-06-19T08:55:03;26.70;72.50
17066;DHT22;23120;52.336;21.182;2023-06-19T08:57:34;26.60;75.70
17066;DHT22;23120;52.336;21.182;2023-06-19T09:00:01;26.70;76.20
17066;DHT22;23120;52.336;21.182;2023-06-19T09:02:42;26.70;73.40
17066;DHT22;23120;52.336;21.182;2023-06-19T09:05:15;26.50;73.80
17066;DHT22;23120;52.336;21.182;2023-06-19T09:07:42;26.30;72.00
17066;DHT22;23120;52.336;21.182;2023-06-19T09:10:15;26.00;72.10
17066;DHT22;23120;52.336;21.182;2023-06-19T09:12:42;26.10;72.80
17066;DHT22;23120;52.336;21.182;2023-06-19T09:15:13;26.10;72.20
17066;DHT22;23120;52.336;21.182;2023-06-19T09:17:41;26.10;70.40
17066;DHT22;23120;52.336;21.182;2023-06-19T09:20:26;26.20;71.30
17066;DHT22;23120;52.336;21.182;2023-06-19T09:22:54;26.10;71.50
17066;DHT22;23120;52.336;21.182;2023-06-19T09:25:21;25.90;70.60
17066;DHT22;23120;52.336;21.182;2023-06-19T09:27:49;25.90;70.50
17066;DHT22;23120;52.336;21.182;2023-06-19T09:30:16;26.00;70.40
17066;DHT22;23120;52.336;21.182;2023-06-19T09:32:44;26.10;70.90
17066;DHT22;23120;52.336;21.182;2023-06-19T09:35:10;26.20;70.60
17066;DHT22;23120;52.336;21.182;2023-06-19T09:37:39;26.40;68.90
17066;DHT22;23120;52.336;21.182;2023-06-19T09:40:07;26.40;68.80
17066;DHT22;23120;52.336;21.182;2023-06-19T09:42:37;26.80;68.60
17066;DHT22;23120;52.336;21.182;2023-06-19T09:45:07;26.20;67.10
17066;DHT22;23120;52.336;21.182;2023-06-19T09:47:36;26.40;67.40
17066;DHT22;23120;52.336;21.182;2023-06-19T09:50:04;26.60;67.60
17066;DHT22;23120;52.336;21.182;2023-06-19T09:52:33;26.90;67.80
17066;DHT22;23120;52.336;21.182;2023-06-19T09:55:06;27.00;66.80
17066;DHT22;23120;52.336;21.182;2023-06-19T09:57:35;26.60;63.90
17066;DHT22;23120;52.336;21.182;2023-06-19T10:00:05;26.80;65.60
17066;DHT22;23120;52.336;21.182;2023-06-19T10:02:41;27.10;66.30
17066;DHT22;23120;52.336;21.182;2023-06-19T10:05:08;27.40;66.60
17066;DHT22;23120;52.336;21.182;2023-06-19T10:07:38;27.40;66.10
17066;DHT22;23120;52.336;21.182;2023-06-19T10:10:09;27.70;65.50
17066;DHT22;23120;52.336;21.182;2023-06-19T10:12:42;28.00;66.60
17066;DHT22;23120;52.336;21.182;2023-06-19T10:15:15;28.20;65.60
17066;DHT22;23120;52.336;21.182;2023-06-19T10:17:46;28.40;66.10
17066;DHT22;23120;52.336;21.182;2023-06-19T10:20:25;28.20;63.80
17066;DHT22;23120;52.336;21.182;2023-06-19T10:23:02;28.20;62.90
17066;DHT22;23120;52.336;21.182;2023-06-19T10:25:31;28.60;63.20
17066;DHT22;23120;52.336;21.182;2023-06-19T10:27:59;28.70;63.40
17066;DHT22;23120;52.336;21.182;2023-06-19T10:30:26;29.20;64.10
17066;DHT22;23120;52.336;21.182;2023-06-19T10:32:53;29.20;64.00
17066;DHT22;23120;52.336;21.182;2023-06-19T10:35:20;29.20;62.50
17066;DHT22;23120;52.336;21.182;2023-06-19T10:37:51;29.50;62.40
17066;DHT22;23120;52.336;21.182;2023-06-19T10:40:18;29.30;60.10
17066;DHT22;23120;52.336;21.182;2023-06-19T10:42:46;28.90;58.70
17066;DHT22;23120;52.336;21.182;2023-06-19T10:45:14;28.80;59.50
17066;DHT22;23120;52.336;21.182;2023-06-19T10:47:43;28.80;57.90
17066;DHT22;23120;52.336;21.182;2023-06-19T10:50:12;28.60;59.00
17066;DHT22;23120;52.336;21.182;2023-06-19T10:52:43;29.20;58.00
17066;DHT22;23120;52.336;21.182;2023-06-19T10:55:11;29.60;59.20
17066;DHT22;23120;52.336;21.182;2023-06-19T10:57:38;29.70;60.30
17066;DHT22;23120;52.336;21.182;2023-06-19T11:00:08;29.50;58.80
17066;DHT22;23120;52.336;21.182;2023-06-19T11:02:39;29.50;59.50
17066;DHT22;23120;52.336;21.182;2023-06-19T11:05:09;29.40;59.20
17066;DHT22;23120;52.336;21.182;2023-06-19T11:07:36;29.40;58.90
17066;DHT22;23120;52.336;21.182;2023-06-19T11:10:04;28.90;56.30
17066;DHT22;23120;52.336;21.182;2023-06-19T11:12:31;29.10;57.60
17066;DHT22;23120;52.336;21.182;2023-06-19T11:14:58;29.30;58.60
17066;DHT22;23120;52.336;21.182;2023-06-19T11:17:26;29.20;57.30
17066;DHT22;23120;52.336;21.182;2023-06-19T11:19:57;29.40;54.10
17066;DHT22;23120;52.336;21.182;2023-06-19T11:22:37;29.60;57.40
17066;DHT22;23120;52.336;21.182;2023-06-19T11:25:09;29.70;57.30
17066;DHT22;23120;52.336;21.182;2023-06-19T11:27:38;29.90;58.50
17066;DHT22;23120;52.336;21.182;2023-06-19T11:30:06;29.80;57.80
17066;DHT22;23120;52.336;21.182;2023-06-19T11:32:37;29.50;55.90
17066;DHT22;23120;52.336;21.182;2023-06-19T11:35:08;29.40;56.40
17066;DHT22;23120;52.336;21.182;2023-06-19T11:37:39;29.00;55.00
17066;DHT22;23120;52.336;21.182;2023-06-19T11:40:08;28.70;55.40
17066;DHT22;23120;52.336;21.182;2023-06-19T11:42:45;28.40;55.40
17066;DHT22;23120;52.336;21.182;2023-06-19T11:45:13;28.50;56.30
17066;DHT22;23120;52.336;21.182;2023-06-19T11:47:43;28.50;56.80
17066;DHT22;23120;52.336;21.182;2023-06-19T11:50:10;28.40;56.90
17066;DHT22;23120;52.336;21.182;2023-06-19T11:52:37;28.70;57.80
17066;DHT22;23120;52.336;21.182;2023-06-19T11:55:05;29.00;58.00
17066;DHT22;23120;52.336;21.182;2023-06-19T11:57:32;29.40;56.30
17066;DHT22;23120;52.336;21.182;2023-06-19T11:59:59;29.60;57.70
17066;DHT22;23120;52.336;21.182;2023-06-19T12:02:26;29.60;55.80
17066;DHT22;23120;52.336;21.182;2023-06-19T12:04:54;29.90;53.90
17066;DHT22;23120;52.336;21.182;2023-06-19T12:07:21;30.00;56.70
17066;DHT22;23120;52.336;21.182;2023-06-19T12:09:48;30.00;56.90
17066;DHT22;23120;52.336;21.182;2023-06-19T12:12:15;30.10;56.20
17066;DHT22;23120;52.336;21.182;2023-06-19T12:14:42;30.30;55.70
17066;DHT22;23120;52.336;21.182;2023-06-19T12:17:09;30.50;52.10
17066;DHT22;23120;52.336;21.182;2023-06-19T12:19:36;30.60;54.00
17066;DHT22;23120;52.336;21.182;2023-06-19T12:22:05;30.80;55.40
17066;DHT22;23120;52.336;21.182;2023-06-19T12:24:32;30.90;56.50
17066;DHT22;23120;52.336;21.182;2023-06-19T12:26:59;30.90;56.70
17066;DHT22;23120;52.336;21.182;2023-06-19T12:29:26;30.50;53.60
17066;DHT22;23120;52.336;21.182;2023-06-19T12:31:58;30.40;53.40
17066;DHT22;23120;52.336;21.182;2023-06-19T12:34:24;30.10;52.90
17066;DHT22;23120;52.336;21.182;2023-06-19T12:36:52;29.60;51.00
17066;DHT22;23120;52.336;21.182;2023-06-19T12:39:21;29.20;51.90
17066;DHT22;23120;52.336;21.182;2023-06-19T12:41:48;29.30;53.00
17066;DHT22;23120;52.336;21.182;2023-06-19T12:44:14;29.30;53.80
17066;DHT22;23120;52.336;21.182;2023-06-19T12:46:42;29.20;54.50
17066;DHT22;23120;52.336;21.182;2023-06-19T12:49:09;29.10;54.70
17066;DHT22;23120;52.336;21.182;2023-06-19T12:51:36;29.10;55.60
17066;DHT22;23120;52.336;21.182;2023-06-19T12:54:03;29.10;56.30
17066;DHT22;23120;52.336;21.182;2023-06-19T12:56:31;28.90;57.40
17066;DHT22;23120;52.336;21.182;2023-06-19T12:58:58;28.70;55.90
17066;DHT22;23120;52.336;21.182;2023-06-19T13:01:24;28.80;57.00
17066;DHT22;23120;52.336;21.182;2023-06-19T13:03:51;28.80;55.50
17066;DHT22;23120;52.336;21.182;2023-06-19T13:06:18;28.70;56.40
17066;DHT22;23120;52.336;21.182;2023-06-19T13:08:45;28.50;54.90
17066;DHT22;23120;52.336;21.182;2023-06-19T13:11:12;28.50;54.90
17066;DHT22;23120;52.336;21.182;2023-06-19T13:13:40;28.50;55.50
17066;DHT22;23120;52.336;21.182;2023-06-19T13:16:08;28.40;55.10
17066;DHT22;23120;52.336;21.182;2023-06-19T13:18:36;28.30;55.60
17066;DHT22;23120;52.336;21.182;2023-06-19T13:21:03;28.60;56.50
17066;DHT22;23120;52.336;21.182;2023-06-19T13:23:29;28.90;56.60
17066;DHT22;23120;52.336;21.182;2023-06-19T13:25:57;29.20;56.00
17066;DHT22;23120;52.336;21.182;2023-06-19T13:28:24;29.50;55.60
17066;DHT22;23120;52.336;21.182;2023-06-19T13:30:52;29.90;56.20
17066;DHT22;23120;52.336;21.182;2023-06-19T13:33:19;30.00;55.00
17066;DHT22;23120;52.336;21.182;2023-06-19T13:35:46;30.30;55.60
17066;DHT22;23120;52.336;21.182;2023-06-19T13:38:13;30.50;55.30
17066;DHT22;23120;52.336;21.182;2023-06-19T13:40:41;30.20;52.60
17066;DHT22;23120;52.336;21.182;2023-06-19T13:43:08;30.50;52.80
17066;DHT22;23120;52.336;21.182;2023-06-19T13:45:35;30.70;52.80
17066;DHT22;23120;52.336;21.182;2023-06-19T13:48:06;30.90;52.50
17066;DHT22;23120;52.336;21.182;2023-06-19T13:50:33;30.70;51.50
17066;DHT22;23120;52.336;21.182;2023-06-19T13:53:00;30.80;52.50
17066;DHT22;23120;52.336;21.182;2023-06-19T13:55:27;30.60;51.70
17066;DHT22;23120;52.336;21.182;2023-06-19T13:57:54;30.50;51.40
17066;DHT22;23120;52.336;21.182;2023-06-19T14:00:22;30.60;52.10
17066;DHT22;23120;52.336;21.182;2023-06-19T14:02:48;30.80;53.90
17066;DHT22;23120;52.336;21.182;2023-06-19T14:05:17;30.70;51.80
17066;DHT22;23120;52.336;21.182;2023-06-19T14:07:44;31.00;52.40
17066;DHT22;23120;52.336;21.182;2023-06-19T14:10:11;31.30;51.50
17066;DHT22;23120;52.336;21.182;2023-06-19T14:12:42;31.50;49.50
17066;DHT22;23120;52.336;21.182;2023-06-19T14:15:41;31.90;51.60
17066;DHT22;23120;52.336;21.182;2023-06-19T14:18:08;32.20;54.00
17066;DHT22;23120;52.336;21.182;2023-06-19T14:20:36;32.40;50.60
17066;DHT22;23120;52.336;21.182;2023-06-19T14:23:03;32.80;52.90
17066;DHT22;23120;52.336;21.182;2023-06-19T14:25:30;33.00;51.60
17066;DHT22;23120;52.336;21.182;2023-06-19T14:27:57;33.30;52.70
17066;DHT22;23120;52.336;21.182;2023-06-19T14:30:24;33.30;50.70
17066;DHT22;23120;52.336;21.182;2023-06-19T14:32:51;33.50;52.80
17066;DHT22;23120;52.336;21.182;2023-06-19T14:35:17;33.50;51.40
17066;DHT22;23120;52.336;21.182;2023-06-19T14:37:46;33.60;50.80
17066;DHT22;23120;52.336;21.182;2023-06-19T14:40:12;33.90;52.60
17066;DHT22;23120;52.336;21.182;2023-06-19T14:42:41;34.00;51.10
17066;DHT22;23120;52.336;21.182;2023-06-19T14:45:08;34.10;53.20
17066;DHT22;23120;52.336;21.182;2023-06-19T14:47:35;33.90;50.30
17066;DHT22;23120;52.336;21.182;2023-06-19T14:50:03;34.00;50.40
17066;DHT22;23120;52.336;21.182;2023-06-19T14:52:29;33.80;49.50
17066;DHT22;23120;52.336;21.182;2023-06-19T14:54:58;33.70;50.90
17066;DHT22;23120;52.336;21.182;2023-06-19T14:57:30;33.10;48.70
17066;DHT22;23120;52.336;21.182;2023-06-19T15:00:13;32.90;47.80
17066;DHT22;23120;52.336;21.182;2023-06-19T15:03:01;32.70;50.10
17066;DHT22;23120;52.336;21.182;2023-06-19T15:05:28;31.20;48.80
17066;DHT22;23120;52.336;21.182;2023-06-19T15:07:55;31.80;49.60
17066;DHT22;23120;52.336;21.182;2023-06-19T15:10:23;32.20;51.60
17066;DHT22;23120;52.336;21.182;2023-06-19T15:12:50;31.60;53.60
17066;DHT22;23120;52.336;21.182;2023-06-19T15:15:16;31.40;55.50
17066;DHT22;23120;52.336;21.182;2023-06-19T15:17:43;31.20;46.20
17066;DHT22;23120;52.336;21.182;2023-06-19T15:20:11;31.40;47.40